Time;durP1;ratioP1;P1;durP2;ratioP2;P2;SDS_P1;SDS_P2;PMS_P1;PMS_P2;Temp;Humidity;BMP_temperature;BMP_pressure;BME280_temperature;BME280_humidity;BME280_pressure;Samples;Min_cycle;Max_cycle;Signal;HPM_P1;HPM_P2
2021/07/11 00:02:18;;;;;;;21.30;19.10;;;17.50;99.90;;;;;;4999155;28;20231;-92
2021/07/11 00:04:44;;;;;;;21.57;19.53;;;17.40;99.90;;;;;;4999819;28;20416;-93
2021/07/11 00:07:14;;;;;;;21.13;19.13;;;17.20;99.90;;;;;;5016404;28;20486;-92
2021/07/11 00:09:42;;;;;;;24.83;22.23;;;17.20;99.90;;;;;;5001245;28;20201;-92
2021/07/11 00:12:08;;;;;;;23.20;20.93;;;17.20;99.90;;;;;;4999778;28;21009;-92
2021/07/11 00:14:34;;;;;;;23.10;20.73;;;17.30;99.90;;;;;;4999111;28;20451;-93
2021/07/11 00:16:59;;;;;;;22.47;20.10;;;17.30;99.90;;;;;;4999118;28;20176;-92
2021/07/11 00:19:25;;;;;;;25.47;20.97;;;17.30;99.90;;;;;;5016846;28;20412;-93
2021/07/11 00:21:51;;;;;;;27.60;22.63;;;17.20;99.90;;;;;;5019150;28;20161;-92
2021/07/11 00:24:16;;;;;;;23.13;20.63;;;17.30;99.90;;;;;;4999525;28;20215;-92
2021/07/11 00:26:42;;;;;;;22.50;20.10;;;17.30;99.90;;;;;;5002139;28;20258;-93
2021/07/11 00:29:08;;;;;;;21.37;19.20;;;17.20;99.90;;;;;;5001042;28;20168;-92
2021/07/11 00:31:33;;;;;;;20.60;18.40;;;17.30;99.90;;;;;;4999063;28;20590;-92
2021/07/11 00:33:59;;;;;;;23.20;20.90;;;17.40;99.90;;;;;;5016672;28;20165;-92
2021/07/11 00:36:24;;;;;;;22.43;20.23;;;17.30;99.90;;;;;;5016862;28;20169;-92
2021/07/11 00:38:50;;;;;;;21.50;19.23;;;17.20;99.90;;;;;;5018100;28;20173;-91
2021/07/11 00:41:16;;;;;;;20.63;17.87;;;17.10;99.90;;;;;;5000503;28;20689;-92
2021/07/11 00:43:41;;;;;;;21.13;18.90;;;17.20;99.90;;;;;;4998740;28;20176;-92
2021/07/11 00:46:07;;;;;;;20.10;18.00;;;17.20;99.90;;;;;;5001001;28;20279;-92
2021/07/11 00:48:33;;;;;;;18.13;16.47;;;16.90;99.90;;;;;;4999467;28;20260;-92
2021/07/11 00:50:59;;;;;;;18.97;16.97;;;17.20;99.90;;;;;;4999683;28;20204;-92
2021/07/11 00:53:27;;;;;;;16.00;14.57;;;17.00;99.90;;;;;;5000435;28;20577;-92
2021/07/11 00:55:54;;;;;;;17.23;15.53;;;16.80;99.90;;;;;;5004121;28;20417;-92
2021/07/11 00:58:24;;;;;;;16.40;14.70;;;17.10;99.90;;;;;;5010767;28;20426;-93
2021/07/11 01:00:55;;;;;;;17.10;15.30;;;16.10;99.90;;;;;;5011768;28;20423;-92
2021/07/11 01:03:37;;;;;;;17.27;15.67;;;17.00;99.90;;;;;;5028047;28;20411;-91
2021/07/11 01:06:03;;;;;;;18.43;14.30;;;17.80;99.90;;;;;;5026322;28;20538;-91
2021/07/11 01:08:54;;;;;;;15.97;14.37;;;16.90;99.90;;;;;;5004971;28;20447;-92
2021/07/11 01:11:23;;;;;;;16.70;13.63;;;17.10;99.90;;;;;;5001261;28;20529;-91
2021/07/11 01:13:52;;;;;;;13.63;12.30;;;18.20;99.90;;;;;;5018771;28;20486;-92
2021/07/11 01:16:26;;;;;;;15.73;14.03;;;16.70;99.90;;;;;;5003139;28;20772;-92
2021/07/11 01:18:54;;;;;;;16.23;13.10;;;16.70;99.90;;;;;;5000113;28;20862;-91
2021/07/11 01:21:22;;;;;;;13.17;11.83;;;16.80;99.90;;;;;;5007436;28;20416;-91
2021/07/11 01:24:05;;;;;;;21.27;13.57;;;16.80;99.90;;;;;;5001470;28;20407;-91
2021/07/11 01:26:31;;;;;;;16.70;14.23;;;16.80;99.90;;;;;;4998034;28;20462;-93
2021/07/11 01:28:57;;;;;;;14.87;13.23;;;16.70;99.90;;;;;;5000144;28;20411;-91
2021/07/11 01:31:25;;;;;;;14.80;13.13;;;16.70;99.90;;;;;;4998211;28;20900;-93
2021/07/11 01:33:51;;;;;;;17.50;13.67;;;16.70;99.90;;;;;;4998539;28;20418;-92
2021/07/11 01:36:20;;;;;;;15.50;13.90;;;16.70;99.90;;;;;;5000236;28;20935;-92
2021/07/11 01:38:48;;;;;;;18.00;13.53;;;16.70;99.90;;;;;;5000883;28;20412;-93
2021/07/11 01:41:17;;;;;;;21.07;15.70;;;16.90;99.90;;;;;;4998623;28;20412;-91
2021/07/11 01:43:45;;;;;;;19.43;14.47;;;16.80;99.90;;;;;;4999833;28;21001;-93
2021/07/11 01:46:12;;;;;;;17.70;15.80;;;16.80;99.90;;;;;;5000095;28;20454;-93
2021/07/11 01:48:38;;;;;;;23.10;15.50;;;16.80;99.90;;;;;;5000812;28;20419;-90
2021/07/11 01:51:04;;;;;;;19.00;15.83;;;19.70;99.90;;;;;;5023839;28;20467;-93
2021/07/11 01:53:39;;;;;;;20.90;17.40;;;16.80;99.90;;;;;;5025020;28;20418;-91
2021/07/11 01:56:06;;;;;;;22.90;17.63;;;16.70;99.90;;;;;;5021934;28;20415;-91
2021/07/11 01:58:32;;;;;;;22.30;16.90;;;20.30;99.90;;;;;;4987245;28;20462;-91
2021/07/11 02:00:58;;;;;;;23.47;17.37;;;16.90;99.90;;;;;;5002540;28;20419;-90
2021/07/11 02:03:25;;;;;;;23.17;17.90;;;19.80;99.90;;;;;;4986904;28;20200;-90
2021/07/11 02:05:54;;;;;;;25.50;18.10;;;16.90;99.90;;;;;;4984443;28;20475;-91
2021/07/11 02:08:20;;;;;;;29.50;19.60;;;17.10;99.90;;;;;;4982973;28;20420;-92
2021/07/11 02:10:48;;;;;;;25.83;19.30;;;17.10;99.90;;;;;;4981581;28;20472;-92
2021/07/11 02:13:31;;;;;;;30.90;18.53;;;17.00;99.90;;;;;;4982755;28;20444;-91
2021/07/11 02:16:03;;;;;;;24.67;18.90;;;19.30;99.90;;;;;;4982869;28;20429;-92
2021/07/11 02:18:29;;;;;;;23.90;18.90;;;17.00;99.90;;;;;;4981769;28;20997;-92
2021/07/11 02:20:56;;;;;;;23.90;19.20;;;16.80;99.90;;;;;;4999163;28;20424;-91
2021/07/11 02:23:23;;;;;;;25.70;19.40;;;16.90;99.90;;;;;;4981602;28;20419;-92
2021/07/11 02:25:50;;;;;;;27.33;19.23;;;16.80;99.90;;;;;;4981250;28;20420;-92
2021/07/11 02:28:17;;;;;;;24.97;19.63;;;17.00;99.90;;;;;;4999204;28;20408;-93
2021/07/11 02:30:52;;;;;;;26.27;20.23;;;17.00;99.90;;;;;;4981355;28;20464;-93
2021/07/11 02:33:26;;;;;;;27.30;21.00;;;17.00;99.90;;;;;;4981644;28;20415;-92
2021/07/11 02:35:54;;;;;;;32.80;19.60;;;17.10;99.90;;;;;;4981945;28;20824;-92
2021/07/11 02:38:20;;;;;;;26.00;20.83;;;17.10;99.90;;;;;;4981199;28;20419;-92
2021/07/11 02:40:46;;;;;;;29.33;21.37;;;17.10;99.90;;;;;;4981027;28;20923;-92
2021/07/11 02:43:13;;;;;;;27.40;21.20;;;17.20;99.90;;;;;;4981388;28;20425;-92
2021/07/11 02:45:43;;;;;;;27.90;20.60;;;17.10;99.90;;;;;;4981535;28;20451;-92
2021/07/11 02:48:10;;;;;;;30.30;23.53;;;20.50;99.90;;;;;;4980818;28;20541;-92
2021/07/11 02:50:37;;;;;;;29.50;22.30;;;17.10;99.90;;;;;;4981676;28;20567;-92
2021/07/11 02:53:04;;;;;;;31.23;21.03;;;17.10;99.90;;;;;;4981285;28;20825;-91
2021/07/11 02:55:34;;;;;;;27.00;19.97;;;17.20;99.90;;;;;;4980836;28;20420;-92
2021/07/11 02:58:04;;;;;;;30.87;23.00;;;19.30;99.90;;;;;;4998578;28;20408;-92
2021/07/11 03:00:30;;;;;;;29.40;23.07;;;17.10;99.90;;;;;;4999422;28;20456;-92
2021/07/11 03:02:56;;;;;;;28.93;23.70;;;17.00;99.90;;;;;;4996601;28;20416;-92
2021/07/11 03:05:24;;;;;;;30.27;22.33;;;17.10;99.90;;;;;;4981177;28;20308;-92
2021/07/11 03:07:51;;;;;;;28.67;23.37;;;18.80;99.90;;;;;;4998844;28;20404;-92
2021/07/11 03:10:17;;;;;;;37.07;25.37;;;17.20;99.90;;;;;;4998215;28;20460;-92
2021/07/11 03:12:49;;;;;;;38.30;24.33;;;17.20;99.90;;;;;;4982217;28;20428;-92
2021/07/11 03:15:16;;;;;;;29.37;23.73;;;17.10;99.90;;;;;;4981597;28;20809;-93
2021/07/11 03:17:43;;;;;;;30.07;25.27;;;17.10;99.90;;;;;;4981375;28;20935;-92
2021/07/11 03:20:11;;;;;;;31.40;23.07;;;17.20;99.90;;;;;;4982633;28;20426;-92
2021/07/11 03:22:38;;;;;;;33.27;25.13;;;17.20;99.90;;;;;;4998619;28;20441;-92
2021/07/11 03:25:07;;;;;;;37.87;26.40;;;17.10;99.90;;;;;;4982206;28;20412;-92
2021/07/11 03:27:33;;;;;;;42.07;27.57;;;17.10;99.90;;;;;;4981926;28;20428;-92
2021/07/11 03:30:09;;;;;;;40.77;25.37;;;17.00;99.90;;;;;;4982490;28;20824;-91
2021/07/11 03:32:46;;;;;;;36.60;26.43;;;16.90;99.90;;;;;;4982697;28;20424;-92
2021/07/11 03:35:15;;;;;;;44.07;27.30;;;16.90;99.90;;;;;;4983832;28;20416;-91
2021/07/11 03:37:45;;;;;;;37.90;25.90;;;16.90;99.90;;;;;;4984498;28;20932;-92
2021/07/11 03:40:16;;;;;;;37.33;24.90;;;17.00;99.90;;;;;;4986847;28;20444;-92
2021/07/11 03:42:42;;;;;;;31.03;23.97;;;17.10;99.90;;;;;;5001627;28;20773;-93
2021/07/11 03:45:12;;;;;;;29.47;21.77;;;17.30;99.90;;;;;;5003430;28;20412;-93
2021/07/11 03:47:49;;;;;;;40.40;25.90;;;17.10;99.90;;;;;;5001159;28;20438;-93
2021/07/11 03:50:21;;;;;;;44.10;27.57;;;17.00;99.90;;;;;;4981212;28;20487;-92
2021/07/11 03:52:56;;;;;;;43.93;26.60;;;17.30;99.90;;;;;;4981770;28;20606;-92
2021/07/11 03:55:22;;;;;;;41.73;27.60;;;17.60;99.90;;;;;;4998383;28;20511;-93
2021/07/11 03:57:50;;;;;;;38.07;27.80;;;16.70;99.90;;;;;;5001705;28;20475;-93
2021/07/11 04:00:19;;;;;;;37.90;27.20;;;16.90;99.90;;;;;;5002567;28;20421;-91
2021/07/11 04:02:50;;;;;;;42.50;28.30;;;16.90;99.90;;;;;;4983843;28;20443;-90
2021/07/11 04:05:23;;;;;;;45.50;29.07;;;16.90;99.90;;;;;;5001608;28;20460;-92
2021/07/11 04:07:53;;;;;;;38.80;28.43;;;16.90;99.90;;;;;;5003202;28;20793;-91
2021/07/11 04:10:30;;;;;;;41.90;29.13;;;16.90;99.90;;;;;;4986954;28;20455;-91
2021/07/11 04:12:58;;;;;;;37.30;27.73;;;17.70;99.90;;;;;;5017264;28;20436;-90
2021/07/11 04:15:26;;;;;;;43.60;29.77;;;17.00;99.90;;;;;;5017112;28;20407;-90
2021/07/11 04:17:57;;;;;;;44.80;30.10;;;17.00;99.90;;;;;;5000256;28;20421;-89
2021/07/11 04:20:26;;;;;;;47.40;28.17;;;17.00;99.90;;;;;;4997236;28;20564;-91
2021/07/11 04:22:56;;;;;;;43.03;28.10;;;17.00;99.90;;;;;;4988884;28;20424;-91
2021/07/11 04:25:22;;;;;;;35.50;27.77;;;17.00;99.90;;;;;;4989225;28;20484;-91
2021/07/11 04:27:50;;;;;;;39.43;29.57;;;17.00;99.90;;;;;;4988521;28;20464;-91
2021/07/11 04:30:17;;;;;;;41.77;28.27;;;17.00;99.90;;;;;;4990443;28;20479;-91
2021/07/11 04:32:42;;;;;;;39.90;28.00;;;19.20;99.90;;;;;;5008510;28;20491;-90
2021/07/11 04:35:09;;;;;;;37.60;26.07;;;17.00;99.90;;;;;;5003311;28;20448;-93
2021/07/11 04:37:37;;;;;;;41.33;27.27;;;17.00;99.90;;;;;;4982512;28;20173;-92
2021/07/11 04:40:03;;;;;;;36.23;26.77;;;17.00;99.90;;;;;;5002030;28;20436;-93
2021/07/11 04:42:28;;;;;;;35.30;28.33;;;15.80;99.90;;;;;;4983356;28;20488;-92
2021/07/11 04:44:54;;;;;;;38.87;28.50;;;16.90;99.90;;;;;;4999240;28;20452;-92
2021/07/11 04:47:20;;;;;;;37.73;27.33;;;16.80;99.90;;;;;;5007630;28;20229;-90
2021/07/11 04:49:47;;;;;;;29.17;25.17;;;16.90;99.90;;;;;;4998270;28;20209;-91
2021/07/11 04:52:13;;;;;;;31.30;26.23;;;17.00;99.90;;;;;;4996791;28;20417;-92
2021/07/11 04:54:39;;;;;;;36.03;26.17;;;16.90;99.90;;;;;;5011249;28;20456;-91
2021/07/11 04:57:05;;;;;;;37.53;27.57;;;16.90;99.90;;;;;;5007184;28;20185;-92
2021/07/11 04:59:31;;;;;;;39.73;29.43;;;16.90;99.90;;;;;;5004204;28;20193;-93
2021/07/11 05:01:57;;;;;;;39.10;29.47;;;16.80;99.90;;;;;;5002957;28;20320;-91
2021/07/11 05:04:23;;;;;;;36.37;27.87;;;16.80;99.90;;;;;;5005044;28;20423;-93
2021/07/11 05:06:49;;;;;;;31.80;26.67;;;16.90;99.90;;;;;;5001749;28;20476;-92
2021/07/11 05:09:15;;;;;;;39.70;29.90;;;15.50;99.90;;;;;;5004088;28;20691;-92
2021/07/11 05:11:41;;;;;;;36.70;28.10;;;16.90;99.90;;;;;;5006955;28;20472;-92
2021/07/11 05:14:09;;;;;;;32.57;26.80;;;16.90;99.90;;;;;;5007158;28;20417;-91
2021/07/11 05:16:35;;;;;;;37.30;27.87;;;18.30;99.90;;;;;;5004725;28;20924;-91
2021/07/11 05:19:03;;;;;;;37.03;27.77;;;17.10;99.90;;;;;;5010438;28;20427;-93
2021/07/11 05:21:29;;;;;;;36.60;28.57;;;17.30;99.90;;;;;;5006525;28;20612;-92
2021/07/11 05:23:56;;;;;;;37.70;27.30;;;17.10;99.90;;;;;;4989092;28;20421;-92
2021/07/11 05:26:25;;;;;;;38.13;30.10;;;17.10;99.90;;;;;;5009860;28;20471;-91
2021/07/11 05:28:51;;;;;;;33.03;27.80;;;20.20;99.90;;;;;;5011274;28;20407;-91
2021/07/11 05:31:17;;;;;;;35.53;28.90;;;13.90;99.50;;;;;;5008326;28;20503;-92
2021/07/11 05:33:43;;;;;;;38.80;30.10;;;19.40;99.90;;;;;;5017106;28;20436;-92
2021/07/11 05:36:10;;;;;;;36.20;28.33;;;19.80;99.90;;;;;;4995414;28;20193;-90
2021/07/11 05:38:38;;;;;;;37.73;30.93;;;20.70;99.90;;;;;;4984212;28;20424;-92
2021/07/11 05:41:05;;;;;;;39.83;31.53;;;19.40;99.90;;;;;;5000610;28;20507;-92
2021/07/11 05:43:31;;;;;;;44.50;33.90;;;18.90;99.90;;;;;;4985460;28;20436;-92
2021/07/11 05:45:57;;;;;;;50.27;35.03;;;20.70;99.90;;;;;;5004051;28;20444;-92
2021/07/11 05:48:23;;;;;;;38.93;31.40;;;19.60;99.90;;;;;;4984171;28;20432;-92
2021/07/11 05:50:49;;;;;;;47.87;34.60;;;19.00;99.90;;;;;;4999741;28;20205;-92
2021/07/11 05:53:15;;;;;;;48.10;36.67;;;19.00;99.90;;;;;;5001183;28;20908;-93
2021/07/11 05:55:41;;;;;;;51.40;36.80;;;19.60;99.90;;;;;;4998949;28;20500;-93
2021/07/11 05:58:07;;;;;;;56.77;37.57;;;16.20;99.90;;;;;;5000257;28;20177;-93
2021/07/11 06:00:34;;;;;;;66.23;42.50;;;20.10;99.90;;;;;;4988324;28;20451;-91
2021/07/11 06:03:00;;;;;;;63.00;41.93;;;21.10;99.90;;;;;;4985294;28;20496;-93
2021/07/11 06:05:26;;;;;;;69.03;45.17;;;20.30;99.90;;;;;;4997976;28;20503;-93
2021/07/11 06:07:52;;;;;;;73.03;46.93;;;17.40;98.40;;;;;;4983830;28;20508;-93
2021/07/11 06:10:17;;;;;;;67.40;42.97;;;17.30;99.20;;;;;;4996729;28;20499;-93
2021/07/11 06:12:43;;;;;;;74.30;48.03;;;17.40;98.90;;;;;;4998596;28;20173;-93
2021/07/11 06:15:10;;;;;;;69.70;46.03;;;17.00;99.90;;;;;;4997918;28;20647;-93
2021/07/11 06:17:36;;;;;;;68.53;45.10;;;17.90;99.90;;;;;;4981398;28;20416;-92
2021/07/11 06:20:10;;;;;;;64.87;44.93;;;17.50;98.80;;;;;;4980798;28;20419;-92
2021/07/11 06:22:37;;;;;;;63.60;44.50;;;17.50;99.10;;;;;;4979243;28;20416;-92
2021/07/11 06:25:07;;;;;;;57.33;40.70;;;18.60;99.90;;;;;;4649406;28;9999800;-92
2021/07/11 06:27:38;;;;;;;63.27;42.27;;;17.80;99.90;;;;;;4988508;28;20215;-93
2021/07/11 06:30:18;;;;;;;65.43;43.20;;;21.60;99.90;;;;;;4989810;28;20475;-93
2021/07/11 06:32:47;;;;;;;60.83;42.33;;;17.80;98.60;;;;;;4977951;28;20435;-92
2021/07/11 06:35:18;;;;;;;56.73;39.27;;;17.90;98.60;;;;;;4994556;28;20784;-93
2021/07/11 06:37:45;;;;;;;58.83;41.90;;;18.10;99.90;;;;;;4997528;28;20444;-92
2021/07/11 06:40:14;;;;;;;59.70;43.10;;;18.30;96.40;;;;;;4983251;28;20447;-93
2021/07/11 06:42:40;;;;;;;56.20;38.50;;;18.40;96.10;;;;;;4982183;28;20429;-93
2021/07/11 06:45:10;;;;;;;59.90;42.40;;;18.50;97.10;;;;;;4998231;28;20520;-92
2021/07/11 06:47:37;;;;;;;55.07;40.93;;;18.50;96.50;;;;;;4970512;28;20189;-92
2021/07/11 06:50:08;;;;;;;58.80;42.80;;;18.50;96.50;;;;;;4983991;28;20525;-93
2021/07/11 06:52:34;;;;;;;60.07;45.07;;;18.50;96.50;;;;;;4986059;28;20415;-93
2021/07/11 06:55:05;;;;;;;57.40;42.70;;;18.60;97.10;;;;;;4987393;28;20432;-93
2021/07/11 06:57:40;;;;;;;62.50;44.57;;;18.80;97.50;;;;;;4988599;28;20421;-91
2021/07/11 07:00:19;;;;;;;61.00;42.87;;;18.80;99.90;;;;;;5007050;28;20428;-91
2021/07/11 07:02:48;;;;;;;58.97;43.87;;;18.70;98.90;;;;;;5007010;28;20415;-91
2021/07/11 07:05:14;;;;;;;59.87;44.10;;;18.60;99.70;;;;;;5006568;28;20458;-92
2021/07/11 07:07:40;;;;;;;61.57;43.70;;;18.60;99.90;;;;;;5005639;28;20413;-93
2021/07/11 07:10:13;;;;;;;61.47;44.47;;;18.70;99.90;;;;;;5005892;28;20213;-91
2021/07/11 07:12:42;;;;;;;57.90;42.90;;;19.50;99.90;;;;;;5009819;28;20201;-91
2021/07/11 07:15:12;;;;;;;58.17;42.20;;;18.70;99.90;;;;;;4994777;28;20419;-92
2021/07/11 07:17:41;;;;;;;53.10;39.90;;;18.80;99.90;;;;;;4975399;28;20440;-92
2021/07/11 07:20:19;;;;;;;46.87;36.57;;;18.90;99.70;;;;;;5005782;28;20834;-94
2021/07/11 07:23:00;;;;;;;46.93;38.07;;;20.30;98.80;;;;;;5005872;28;20487;-93
2021/07/11 07:25:25;;;;;;;49.40;39.17;;;18.80;98.60;;;;;;4661116;28;10000114;-92
2021/07/11 07:27:52;;;;;;;47.30;38.37;;;19.10;98.30;;;;;;4996000;28;20189;-92
2021/07/11 07:30:21;;;;;;;41.43;32.67;;;19.00;99.50;;;;;;4997814;28;20209;-92
2021/07/11 07:32:51;;;;;;;39.00;34.33;;;18.90;99.70;;;;;;4987623;28;20428;-91
2021/07/11 07:35:18;;;;;;;42.63;36.20;;;18.80;99.90;;;;;;4989622;28;20431;-91
2021/07/11 07:37:46;;;;;;;43.03;35.63;;;19.00;99.30;;;;;;5005388;28;20421;-90
2021/07/11 07:40:13;;;;;;;35.03;31.10;;;19.10;99.90;;;;;;4987237;28;20444;-93
2021/07/11 07:42:46;;;;;;;35.83;31.37;;;19.20;93.10;;;;;;4987716;28;20486;-92
2021/07/11 07:45:15;;;;;;;36.20;29.63;;;19.40;95.40;;;;;;4970144;28;20495;-92
2021/07/11 07:47:46;;;;;;;35.20;31.50;;;19.60;96.00;;;;;;4985873;28;20429;-90
2021/07/11 07:50:18;;;;;;;34.37;30.97;;;19.90;96.20;;;;;;4990402;28;20468;-93
2021/07/11 07:52:44;;;;;;;34.30;29.90;;;19.60;94.80;;;;;;4990613;28;20421;-92
2021/07/11 07:55:10;;;;;;;35.83;32.00;;;19.70;94.80;;;;;;4989368;28;20425;-93
2021/07/11 07:57:37;;;;;;;35.20;31.60;;;19.80;95.20;;;;;;5004236;28;20816;-91
2021/07/11 08:00:11;;;;;;;32.13;28.10;;;20.00;96.10;;;;;;5009085;28;20412;-92
2021/07/11 08:02:50;;;;;;;35.37;31.37;;;20.20;91.90;;;;;;4989787;28;20427;-92
2021/07/11 08:05:16;;;;;;;32.93;29.40;;;23.30;91.90;;;;;;4989294;28;20472;-91
2021/07/11 08:07:42;;;;;;;32.30;28.77;;;20.30;88.40;;;;;;4990657;28;20439;-93
2021/07/11 08:10:19;;;;;;;34.10;30.40;;;20.30;89.70;;;;;;4996120;28;20460;-90
2021/07/11 08:12:48;;;;;;;33.67;30.07;;;23.00;90.00;;;;;;4998838;28;20431;-91
2021/07/11 08:15:20;;;;;;;36.13;31.13;;;20.10;90.20;;;;;;4999288;28;20440;-93
2021/07/11 08:17:54;;;;;;;35.30;31.50;;;20.10;91.10;;;;;;5002785;28;20434;-92
2021/07/11 08:20:32;;;;;;;32.77;29.27;;;20.20;90.40;;;;;;5037713;28;20443;-91
2021/07/11 08:23:01;;;;;;;38.10;32.80;;;20.10;90.50;;;;;;5019347;28;20431;-92
2021/07/11 08:25:29;;;;;;;43.80;35.07;;;19.90;89.40;;;;;;5016767;28;20450;-89
2021/07/11 08:27:55;;;;;;;44.67;36.97;;;19.60;91.70;;;;;;5012774;28;20456;-91
2021/07/11 08:30:26;;;;;;;46.73;36.80;;;19.60;91.90;;;;;;5010048;28;20463;-92
2021/07/11 08:32:54;;;;;;;48.73;36.93;;;19.50;92.10;;;;;;5012134;28;20173;-93
2021/07/11 08:35:29;;;;;;;48.90;38.03;;;19.50;92.30;;;;;;5010422;28;20424;-93
2021/07/11 08:37:55;;;;;;;47.07;37.47;;;19.50;92.80;;;;;;4990962;28;20420;-90
2021/07/11 08:40:24;;;;;;;53.93;37.63;;;19.30;93.00;;;;;;5010711;28;20403;-91
2021/07/11 08:43:00;;;;;;;52.53;39.73;;;19.20;93.60;;;;;;5019518;28;20428;-91
2021/07/11 08:45:36;;;;;;;56.70;41.87;;;19.00;94.10;;;;;;5019717;28;20438;-87
2021/07/11 08:48:12;;;;;;;59.50;41.50;;;18.80;95.30;;;;;;5003026;28;20443;-92
2021/07/11 08:50:38;;;;;;;59.30;42.97;;;18.80;95.60;;;;;;5005433;28;20517;-88
2021/07/11 08:53:11;;;;;;;60.90;40.10;;;18.90;95.30;;;;;;5020250;28;20427;-89
2021/07/11 08:55:39;;;;;;;56.43;41.33;;;20.60;94.70;;;;;;5019370;28;20440;-90
2021/07/11 08:58:13;;;;;;;49.30;34.43;;;19.40;94.40;;;;;;5004424;28;20420;-91
2021/07/11 09:01:05;;;;;;;56.10;41.27;;;16.40;90.00;;;;;;5004325;28;20522;-91
2021/07/11 09:03:39;;;;;;;47.80;35.70;;;20.00;92.30;;;;;;5001670;28;20475;-88
2021/07/11 09:06:04;;;;;;;46.17;37.03;;;23.10;91.70;;;;;;5033592;28;20467;-91
2021/07/11 09:08:55;;;;;;;46.17;35.30;;;20.10;90.80;;;;;;5016408;28;20427;-91
2021/07/11 09:11:24;;;;;;;53.20;37.53;;;20.10;89.20;;;;;;5013950;28;20230;-92
2021/07/11 09:13:51;;;;;;;44.90;35.83;;;19.60;91.50;;;;;;5008931;28;20438;-92
2021/07/11 09:16:24;;;;;;;40.60;33.37;;;19.70;91.50;;;;;;5010867;28;20423;-91
2021/07/11 09:18:54;;;;;;;40.07;30.10;;;20.70;90.20;;;;;;5028366;28;20408;-91
2021/07/11 09:21:49;;;;;;;40.60;31.07;;;20.60;87.30;;;;;;5028635;28;20570;-92
2021/07/11 09:24:14;;;;;;;38.50;31.13;;;22.10;81.70;;;;;;5013484;28;20442;-91
2021/07/11 09:26:43;;;;;;;40.03;28.50;;;23.20;90.40;;;;;;5012291;28;20424;-93
2021/07/11 09:29:30;;;;;;;30.30;27.07;;;21.40;84.10;;;;;;5024254;28;20227;-93
2021/07/11 09:31:56;;;;;;;34.53;29.37;;;22.10;71.00;;;;;;5009472;28;20439;-91
2021/07/11 09:34:25;;;;;;;36.70;29.97;;;21.20;70.30;;;;;;5006090;28;20427;-93
2021/07/11 09:37:20;;;;;;;33.67;28.97;;;25.10;74.40;;;;;;5007035;28;20436;-91
2021/07/11 09:40:02;;;;;;;33.50;30.00;;;22.70;68.20;;;;;;5013916;28;20427;-91
2021/07/11 09:42:48;;;;;;;32.93;27.07;;;24.30;73.90;;;;;;4988337;28;20439;-91
2021/07/11 09:45:22;;;;;;;28.53;25.50;;;25.00;75.10;;;;;;5003632;28;20401;-93
2021/07/11 09:47:55;;;;;;;29.00;26.00;;;23.20;68.60;;;;;;5001388;28;20421;-92
2021/07/11 09:50:26;;;;;;;27.93;25.20;;;24.00;63.70;;;;;;4984766;28;20464;-95
2021/07/11 09:53:06;;;;;;;26.57;23.93;;;24.70;58.70;;;;;;5000542;28;20495;-93
2021/07/11 09:55:38;;;;;;;27.10;23.83;;;25.00;58.00;;;;;;4982957;28;20439;-94
2021/07/11 09:58:22;;;;;;;26.03;23.53;;;28.90;58.00;;;;;;4984005;28;20412;-95
2021/07/11 10:00:58;;;;;;;28.07;25.47;;;27.90;55.10;;;;;;5017399;28;20489;-93
2021/07/11 10:03:35;;;;;;;27.73;25.03;;;28.20;50.90;;;;;;5005508;28;20419;-95
2021/07/11 10:06:40;;;;;;;29.07;26.33;;;29.90;56.10;;;;;;5003985;28;20463;-94
2021/07/11 10:09:34;;;;;;;28.83;25.73;;;27.40;50.80;;;;;;5022014;28;20749;-94
2021/07/11 10:12:09;;;;;;;30.60;27.67;;;27.20;50.30;;;;;;5029059;28;20457;-95
2021/07/11 10:14:38;;;;;;;30.13;27.20;;;26.00;52.00;;;;;;5007364;28;20415;-94
2021/07/11 10:17:07;;;;;;;28.73;26.00;;;25.50;55.40;;;;;;4660747;28;10000023;-95
2021/07/11 10:20:01;;;;;;;31.60;28.63;;;25.80;54.60;;;;;;5004641;28;20478;-93
2021/07/11 10:22:42;;;;;;;29.83;26.80;;;25.60;54.30;;;;;;4986376;28;20428;-92
2021/07/11 10:25:14;;;;;;;26.77;24.30;;;26.10;53.80;;;;;;4989635;28;20413;-92
2021/07/11 10:27:40;;;;;;;27.57;24.90;;;26.40;52.60;;;;;;4986728;28;20412;-93
2021/07/11 10:30:06;;;;;;;27.60;25.03;;;28.20;53.70;;;;;;4988305;28;20475;-92
2021/07/11 10:32:44;;;;;;;26.90;24.63;;;26.40;52.80;;;;;;5010238;28;20420;-92
2021/07/11 10:35:15;;;;;;;23.67;21.67;;;28.50;51.70;;;;;;4990861;28;20424;-94
2021/07/11 10:38:06;;;;;;;23.97;21.87;;;26.90;50.00;;;;;;5010449;28;20868;-93
2021/07/11 10:40:39;;;;;;;25.20;23.00;;;28.50;51.70;;;;;;5028514;28;20479;-93
2021/07/11 10:43:45;;;;;;;;;;;;;;;;;;;;;
2021/07/11 10:46:12;;;;;;;29.07;26.17;;;28.00;50.80;;;;;;5029992;28;20435;-91
2021/07/11 10:48:44;;;;;;;29.60;26.47;;;25.60;51.40;;;;;;5030132;28;20416;-93
2021/07/11 10:51:26;;;;;;;22.93;21.03;;;27.40;53.30;;;;;;4975340;28;20558;-92
2021/07/11 10:53:51;;;;;;;21.57;19.53;;;26.30;52.20;;;;;;4990619;28;20484;-94
2021/07/11 10:56:29;;;;;;;22.10;20.20;;;26.10;53.20;;;;;;5010268;28;20447;-94
2021/07/11 10:58:54;;;;;;;22.47;20.57;;;25.40;50.70;;;;;;5016284;28;20439;-93
2021/07/11 11:06:49;;;;;;;;;;;;;;;;;;;;;
2021/07/11 11:09:38;;;;;;;22.17;20.23;;;27.10;54.60;;;;;;5007837;28;20488;-91
2021/07/11 11:12:24;;;;;;;20.90;19.10;;;25.40;50.50;;;;;;5014890;28;20428;-88
2021/07/11 11:15:08;;;;;;;21.33;19.43;;;25.90;51.30;;;;;;4999697;28;20430;-94
2021/07/11 11:17:36;;;;;;;24.47;22.27;;;27.00;53.30;;;;;;5015848;28;20436;-92
2021/07/11 11:20:19;;;;;;;23.87;21.80;;;23.30;52.00;;;;;;5010958;28;20420;-91
2021/07/11 11:25:48;;;;;;;24.47;22.13;;;26.80;54.70;;;;;;5013566;28;20424;-90
2021/07/11 11:28:25;;;;;;;23.70;21.70;;;24.40;56.30;;;;;;5011835;28;20420;-90
2021/07/11 11:31:04;;;;;;;24.20;22.00;;;25.90;55.50;;;;;;5010490;28;20460;-91
2021/07/11 11:33:30;;;;;;;23.97;21.77;;;24.40;54.50;;;;;;5010796;28;20463;-92
2021/07/11 11:35:56;;;;;;;23.70;21.60;;;25.60;56.40;;;;;;5010449;28;20889;-93
2021/07/11 11:38:22;;;;;;;24.70;22.43;;;24.40;55.70;;;;;;5002177;28;20181;-94
2021/07/11 11:40:47;;;;;;;24.03;22.03;;;24.40;57.10;;;;;;5004086;28;20428;-94
2021/07/11 11:43:22;;;;;;;26.13;23.73;;;26.20;57.30;;;;;;5001022;28;20173;-94
2021/07/11 11:45:48;;;;;;;25.10;22.90;;;23.90;55.90;;;;;;4999291;28;20177;-92
2021/07/11 11:48:18;;;;;;;25.20;23.00;;;23.70;57.10;;;;;;4994282;28;20479;-92
2021/07/11 11:50:52;;;;;;;24.50;22.20;;;23.40;56.20;;;;;;4979671;28;20210;-92
2021/07/11 11:53:17;;;;;;;26.63;24.33;;;24.00;57.30;;;;;;4982405;28;20791;-95
2021/07/11 11:55:57;;;;;;;24.97;22.73;;;24.90;56.90;;;;;;4986929;28;20477;-94
2021/07/11 11:58:29;;;;;;;24.83;22.60;;;23.50;56.50;;;;;;4982389;28;20178;-94
2021/07/11 12:01:15;;;;;;;25.03;22.77;;;23.90;57.10;;;;;;4981536;28;20500;-93
2021/07/11 12:03:43;;;;;;;24.07;21.97;;;22.30;55.80;;;;;;4980261;28;20422;-94
2021/07/11 12:06:11;;;;;;;22.87;20.77;;;24.90;56.50;;;;;;4982081;28;20409;-94
2021/07/11 12:08:42;;;;;;;23.97;21.50;;;23.70;55.40;;;;;;4988958;28;20416;-93
2021/07/11 12:11:13;;;;;;;45.23;40.23;;;23.90;56.10;;;;;;4986786;28;20487;-93
2021/07/11 12:13:40;;;;;;;25.00;22.80;;;23.60;55.70;;;;;;4986282;28;20551;-92
2021/07/11 12:16:14;;;;;;;24.60;22.40;;;22.10;55.00;;;;;;4990469;28;20492;-92
2021/07/11 12:19:00;;;;;;;;;;;;;;;;;;;;;
2021/07/11 12:21:38;;;;;;;23.57;21.50;;;23.50;55.80;;;;;;5017032;28;20444;-93
2021/07/11 12:24:14;;;;;;;24.20;21.90;;;24.20;56.00;;;;;;4997564;28;20416;-94
2021/07/11 12:26:43;;;;;;;24.53;22.50;;;26.40;57.60;;;;;;4987211;28;20420;-92
2021/07/11 12:29:16;;;;;;;25.30;23.10;;;24.00;56.70;;;;;;4985880;28;20413;-92
2021/07/11 12:31:43;;;;;;;24.43;22.33;;;25.00;56.80;;;;;;4991651;28;20550;-93
2021/07/11 12:34:16;;;;;;;24.17;22.17;;;24.50;55.40;;;;;;4998440;28;20419;-93
2021/07/11 12:36:59;;;;;;;22.97;20.97;;;28.00;57.20;;;;;;5005360;28;20481;-94
2021/07/11 12:39:27;;;;;;;22.87;20.87;;;23.90;55.80;;;;;;5005657;28;20420;-93
2021/07/11 12:41:57;;;;;;;22.70;20.80;;;25.20;55.90;;;;;;5025610;28;20420;-94
2021/07/11 12:44:40;;;;;;;23.17;21.30;;;25.20;54.60;;;;;;5006574;28;20427;-90
2021/07/11 12:47:17;;;;;;;23.80;21.83;;;25.90;52.30;;;;;;5011511;28;20472;-92
2021/07/11 12:49:57;;;;;;;22.37;20.63;;;26.30;51.90;;;;;;5001402;28;20559;-93
2021/07/11 12:52:25;;;;;;;22.80;21.00;;;27.90;51.50;;;;;;4988980;28;20439;-95
2021/07/11 12:54:54;;;;;;;22.90;21.10;;;27.80;51.90;;;;;;4986610;28;20392;-92
2021/07/11 12:57:26;;;;;;;20.20;18.50;;;26.20;51.20;;;;;;4983661;28;20463;-93